Burgos, Spain
Current Conditions -  °F | °C
As of 7:00 PM on Thursday 27 Nov 2014 (Local Time) from LEBG Reporting Station
Few Clouds Few Clouds  
Wind Chill: 41°   Ceiling: Unl
Heat Index: 46°   Visibility: 6mi
Dew Point: 41°   Wind: 13mph
Humidity: 81%   Direction: 140°SE
Pressure: 29.32"   Gusts: NA
Location:  42.34°N, 3.7°W
Report Text: LEBG 271800Z 14011KT 9999 FEW045 08/05 Q0993
Loading
Personal Weather Stations






























Interactive Weather Map New forecast layout! Learn more

10-Day Weather Forecast

Advertisements
Track Severe Weather on mobile